Time;durP1;ratioP1;P1;durP2;ratioP2;P2;SDS_P1;SDS_P2;PMS_P1;PMS_P2;Temp;Humidity;BMP_temperature;BMP_pressure;BME280_temperature;BME280_humidity;BME280_pressure;Samples;Min_cycle;Max_cycle;Signal;HPM_P1;HPM_P2
2022/04/24 00:04:56;;;;;;;2.50;2.30;;;;;;;17.22;54.88;94681.63;10378676;28;20037;-22
2022/04/24 00:09:57;;;;;;;2.65;2.42;;;;;;;17.22;54.94;94676.56;10377761;28;20794;-22
2022/04/24 00:14:57;;;;;;;3.30;2.77;;;;;;;17.22;54.87;94686.69;10413328;28;20037;-23
2022/04/24 00:19:57;;;;;;;2.97;2.67;;;;;;;17.20;54.71;94688.44;10375352;28;20041;-22
2022/04/24 00:24:58;;;;;;;3.20;2.20;;;;;;;17.20;54.62;94699.41;10335222;28;20312;-23
2022/04/24 00:29:58;;;;;;;3.40;2.80;;;;;;;17.20;54.98;94713.72;10340043;28;20036;-23
2022/04/24 00:34:58;;;;;;;3.33;3.00;;;;;;;17.20;55.13;94726.38;10371149;28;20044;-22
2022/04/24 00:39:59;;;;;;;5.40;3.93;;;;;;;17.23;56.35;94723.78;10336377;28;20061;-24
2022/04/24 00:44:59;;;;;;;4.60;3.90;;;;;;;17.24;57.61;94708.53;10337488;28;20550;-24
2022/04/24 00:50:12;;;;;;;4.30;3.55;;;;;;;17.34;57.45;94731.91;10370091;28;20030;-23
2022/04/24 00:55:12;;;;;;;4.53;3.00;;;;;;;17.27;55.28;94730.41;10334298;28;20441;-22
2022/04/24 01:00:13;;;;;;;2.77;2.50;;;;;;;17.24;54.70;94754.06;10330773;28;20461;-23
2022/04/24 01:05:16;;;;;;;2.70;2.50;;;;;;;17.22;54.80;94757.50;10360790;28;20304;-22
2022/04/24 01:10:16;;;;;;;3.03;2.50;;;;;;;17.21;54.85;94771.00;10372257;28;20055;-22
2022/04/24 01:15:16;;;;;;;3.07;2.23;;;;;;;17.21;54.71;94781.97;10387248;28;20065;-22
2022/04/24 01:20:21;;;;;;;3.57;3.27;;;;;;;17.20;54.71;94792.09;10365696;28;20041;-23
2022/04/24 01:25:22;;;;;;;3.00;2.63;;;;;;;17.20;54.84;94799.69;10330102;28;20046;-22
2022/04/24 01:30:22;;;;;;;3.58;2.65;;;;;;;17.21;54.75;94811.47;10329070;28;20416;-24
2022/04/24 01:35:23;;;;;;;2.70;2.50;;;;;;;17.21;54.73;94816.53;10329048;28;20042;-23
2022/04/24 01:40:23;;;;;;;3.80;3.20;;;;;;;17.28;57.14;94818.03;10366358;28;20048;-22
2022/04/24 01:45:23;;;;;;;4.30;3.35;;;;;;;17.32;57.31;94832.28;10369018;28;20037;-23
2022/04/24 01:50:24;;;;;;;2.70;2.50;;;;;;;17.32;56.90;94855.84;10328435;28;20124;-23
2022/04/24 01:55:24;;;;;;;4.40;2.63;;;;;;;17.26;55.05;94860.22;10328283;28;20528;-23
2022/04/24 02:00:25;;;;;;;2.67;2.40;;;;;;;17.24;54.72;94856.91;10327840;28;20042;-22
2022/04/24 02:05:25;;;;;;;2.87;2.60;;;;;;;17.23;54.95;94878.03;10359835;28;20412;-23
2022/04/24 02:10:25;;;;;;;4.80;2.57;;;;;;;17.21;54.91;94874.69;10371937;28;20034;-22
2022/04/24 02:15:26;;;;;;;3.27;2.80;;;;;;;17.14;54.78;94870.66;10395478;28;20164;-22
2022/04/24 02:20:26;;;;;;;3.27;2.37;;;;;;;17.21;54.96;94889.84;10368401;28;20837;-22
2022/04/24 02:25:28;;;;;;;2.60;2.40;;;;;;;17.20;54.89;94904.22;10329566;28;20320;-22
2022/04/24 02:30:29;;;;;;;2.78;2.33;;;;;;;17.12;54.67;94892.59;10327966;28;20034;-23
2022/04/24 02:35:30;;;;;;;2.63;2.35;;;;;;;17.20;54.63;94926.97;10327361;28;20408;-23
2022/04/24 02:40:30;;;;;;;3.87;3.47;;;;;;;17.27;57.33;94941.13;10327429;28;20042;-22
2022/04/24 02:45:31;;;;;;;4.27;2.53;;;;;;;17.31;57.35;94935.13;10333693;28;20108;-22
2022/04/24 02:50:31;;;;;;;4.72;2.90;;;;;;;17.32;56.67;94946.06;10367780;28;20064;-23
2022/04/24 02:55:32;;;;;;;3.08;2.20;;;;;;;17.26;54.85;94961.38;10328763;28;20066;-23
2022/04/24 03:00:41;;;;;;;2.40;2.20;;;;;;;17.24;54.72;94970.72;10327069;28;20034;-23
2022/04/24 03:05:41;;;;;;;4.38;2.20;;;;;;;17.22;54.66;94977.47;10360412;28;20038;-22
2022/04/24 03:10:42;;;;;;;4.23;2.43;;;;;;;17.22;54.56;94978.31;10372720;28;20496;-23
2022/04/24 03:15:42;;;;;;;5.15;2.28;;;;;;;17.21;54.75;94985.94;10406402;28;20037;-22
2022/04/24 03:20:44;;;;;;;2.50;2.30;;;;;;;17.22;54.65;94990.13;10326657;28;20053;-23
2022/04/24 03:25:45;;;;;;;2.60;2.20;;;;;;;17.20;54.87;94997.75;10325653;28;20273;-22
2022/04/24 03:30:45;;;;;;;3.25;2.40;;;;;;;17.20;54.73;94994.38;10332902;28;20038;-22
2022/04/24 03:35:46;;;;;;;2.13;1.97;;;;;;;17.20;54.79;94994.38;10365805;28;20029;-24
2022/04/24 03:40:46;;;;;;;3.13;2.83;;;;;;;17.20;57.14;94966.56;10326355;28;20049;-23
2022/04/24 03:45:46;;;;;;;3.97;2.40;;;;;;;17.30;56.75;94973.91;10325771;28;20554;-22
2022/04/24 03:50:47;;;;;;;5.83;2.83;;;;;;;17.22;56.29;94963.16;10329637;28;20109;-23
2022/04/24 03:55:47;;;;;;;2.93;2.20;;;;;;;17.26;55.16;94968.97;10333204;28;20412;-22
2022/04/24 04:00:48;;;;;;;2.40;1.87;;;;;;;17.16;54.70;94960.75;10333275;28;20550;-23
2022/04/24 04:05:48;;;;;;;2.55;2.10;;;;;;;17.23;55.15;94982.50;10365989;28;20519;-22
2022/04/24 04:10:49;;;;;;;2.93;2.10;;;;;;;17.21;54.78;94970.75;10380472;28;20040;-23
2022/04/24 04:15:49;;;;;;;2.30;2.10;;;;;;;17.21;54.79;94975.81;10384814;28;20034;-22
2022/04/24 04:20:50;;;;;;;2.10;1.92;;;;;;;17.14;54.47;94966.75;10331812;28;20117;-23
2022/04/24 04:25:50;;;;;;;3.60;2.07;;;;;;;17.21;54.56;94975.81;10331691;28;20101;-22
2022/04/24 04:30:51;;;;;;;2.35;2.15;;;;;;;17.20;54.94;94971.63;10331389;28;20939;-23
2022/04/24 04:35:51;;;;;;;2.83;2.63;;;;;;;17.20;54.66;94966.56;10331901;28;20408;-23
2022/04/24 04:40:51;;;;;;;3.53;2.37;;;;;;;17.20;56.53;94959.00;10331457;28;20301;-23
2022/04/24 04:45:53;;;;;;;3.40;2.50;;;;;;;17.29;56.93;94961.31;10330897;28;20297;-22
2022/04/24 04:50:54;;;;;;;3.13;2.20;;;;;;;17.31;56.91;94962.13;10330787;28;20641;-23
2022/04/24 04:55:54;;;;;;;3.60;1.90;;;;;;;17.26;54.97;94981.63;10330804;28;20053;-23
2022/04/24 05:00:55;;;;;;;2.35;2.15;;;;;;;17.24;54.88;94984.16;10329596;28;20096;-22
2022/04/24 05:05:56;;;;;;;2.17;1.98;;;;;;;17.24;55.05;94978.31;10363936;28;20036;-24
2022/04/24 05:10:56;;;;;;;2.40;2.05;;;;;;;17.21;55.02;94988.47;10380900;28;20051;-23
2022/04/24 05:15:57;;;;;;;1.92;1.83;;;;;;;17.22;54.67;94969.91;10390619;28;20062;-23
2022/04/24 05:20:57;;;;;;;2.63;2.20;;;;;;;17.24;55.40;94970.72;10330326;28;20050;-23
2022/04/24 05:25:58;;;;;;;2.23;1.90;;;;;;;17.24;54.63;94968.19;10370382;28;20038;-23
2022/04/24 05:30:58;;;;;;;3.55;2.33;;;;;;;17.23;54.89;94962.28;10362393;28;20339;-23
2022/04/24 05:35:58;;;;;;;2.78;2.08;;;;;;;17.19;55.03;94954.81;10329113;28;20041;-23
2022/04/24 05:40:59;;;;;;;2.20;2.00;;;;;;;17.23;55.82;94967.34;10329361;28;20038;-23
2022/04/24 05:45:59;;;;;;;6.90;2.53;;;;;;;17.31;57.63;94964.66;10347164;28;20038;-23
2022/04/24 05:51:00;;;;;;;3.97;2.23;;;;;;;17.34;57.29;94967.09;10365325;28;20388;-22
2022/04/24 05:56:00;;;;;;;3.50;2.00;;;;;;;17.32;56.55;94971.38;10377923;28;20291;-22
2022/04/24 06:01:00;;;;;;;3.80;1.97;;;;;;;17.29;55.88;94974.78;10377874;28;20055;-22
2022/04/24 06:06:01;;;;;;;3.87;2.10;;;;;;;17.30;55.89;94978.97;10363323;28;20112;-23
2022/04/24 06:11:01;;;;;;;1.98;1.63;;;;;;;17.26;55.47;94977.38;10367896;28;20034;-23
2022/04/24 06:16:02;;;;;;;4.40;2.17;;;;;;;17.29;55.03;94984.06;10364241;28;20129;-22
2022/04/24 06:21:02;;;;;;;2.50;1.95;;;;;;;17.20;54.71;94975.00;10364918;28;21845;-22
2022/04/24 06:26:03;;;;;;;2.27;1.90;;;;;;;17.28;54.98;94987.47;10367916;28;20400;-22
2022/04/24 06:31:03;;;;;;;3.45;2.72;;;;;;;17.29;54.88;94986.59;10354204;28;20289;-22
2022/04/24 06:36:04;;;;;;;14.90;3.20;;;;;;;17.21;54.43;94980.88;10327370;28;20042;-24
2022/04/24 06:41:04;;;;;;;15.20;2.87;;;;;;;17.20;55.68;94986.81;10366365;28;20041;-23
2022/04/24 06:46:04;;;;;;;3.33;1.50;;;;;;;17.24;56.36;94991.75;10365368;28;20144;-24
2022/04/24 06:51:05;;;;;;;7.23;2.47;;;;;;;17.33;57.94;94980.63;10365241;28;20679;-23
2022/04/24 06:56:05;;;;;;;5.97;1.90;;;;;;;17.35;56.83;94989.84;10326255;28;20034;-22
2022/04/24 07:01:06;;;;;;;3.10;1.98;;;;;;;17.36;55.92;94999.13;10326561;28;20181;-23
2022/04/24 07:06:07;;;;;;;3.60;2.30;;;;;;;17.35;56.73;94991.53;10360613;28;20396;-22
2022/04/24 07:11:07;;;;;;;4.97;1.92;;;;;;;17.35;56.56;95006.69;10378934;28;20200;-22
2022/04/24 07:16:08;;;;;;;8.93;2.00;;;;;;;17.26;55.49;95006.91;10374380;28;20126;-22
2022/04/24 07:21:08;;;;;;;2.50;1.40;;;;;;;17.21;55.33;95018.81;10325858;28;20030;-23
2022/04/24 07:26:08;;;;;;;5.13;2.43;;;;;;;17.32;56.28;95011.84;10341090;28;20554;-22
2022/04/24 07:31:09;;;;;;;10.03;2.23;;;;;;;17.33;56.47;95016.03;10372448;28;20481;-22
2022/04/24 07:36:09;;;;;;;9.00;2.33;;;;;;;17.32;55.96;95016.91;10370257;28;20734;-23
2022/04/24 07:41:10;;;;;;;5.80;1.80;;;;;;;17.32;55.86;95022.75;10372861;28;20288;-23
2022/04/24 07:46:11;;;;;;;5.55;2.00;;;;;;;17.24;56.57;95016.22;10371304;28;20034;-22
2022/04/24 07:51:11;;;;;;;2.80;1.53;;;;;;;17.36;56.63;95023.56;10369545;28;20037;-23
2022/04/24 07:56:11;;;;;;;3.25;1.50;;;;;;;17.35;57.03;95024.41;10372156;28;20034;-23
2022/04/24 08:01:16;;;;;;;3.22;1.30;;;;;;;17.36;55.97;95028.63;10370039;28;20038;-25
2022/04/24 08:06:16;;;;;;;1.55;1.38;;;;;;;17.34;55.24;95040.44;10368092;28;20038;-23
2022/04/24 08:11:16;;;;;;;3.27;1.40;;;;;;;17.33;55.17;95033.72;10387419;28;20037;-22
2022/04/24 08:16:17;;;;;;;2.90;1.70;;;;;;;17.32;55.03;95048.06;10361464;28;20413;-23
2022/04/24 08:21:17;;;;;;;1.23;1.07;;;;;;;17.11;54.58;95038.44;10345947;28;20057;-23
2022/04/24 08:26:18;;;;;;;1.40;1.30;;;;;;;17.21;54.87;95039.88;10368424;28;20132;-22
2022/04/24 08:31:18;;;;;;;5.05;1.42;;;;;;;17.23;54.72;95045.72;10361550;28;20030;-23
2022/04/24 08:36:19;;;;;;;13.27;2.23;;;;;;;17.27;55.39;95054.09;10355318;28;20108;-22
2022/04/24 08:41:26;;;;;;;39.00;3.67;;;;;;;17.27;55.48;95049.88;10370785;28;20489;-22
2022/04/24 08:46:26;;;;;;;8.20;3.42;;;;;;;17.28;55.05;95053.22;10364230;28;20042;-22
2022/04/24 08:51:27;;;;;;;12.63;1.38;;;;;;;17.34;56.41;95051.38;10363473;28;20029;-24
2022/04/24 08:56:28;;;;;;;8.18;1.30;;;;;;;17.40;56.86;95060.59;10323177;28;20404;-22
2022/04/24 09:01:31;;;;;;;7.57;1.17;;;;;;;17.40;56.38;95063.94;10357451;28;20034;-23
2022/04/24 09:06:32;;;;;;;7.40;1.77;;;;;;;17.39;55.75;95074.06;10346157;28;20429;-22
2022/04/24 09:11:33;;;;;;;2.33;1.50;;;;;;;17.36;55.63;95076.69;10358849;28;20068;-23
2022/04/24 09:16:35;;;;;;;6.32;2.10;;;;;;;17.35;55.39;95083.41;10358603;28;20033;-23
2022/04/24 09:21:35;;;;;;;7.25;1.90;;;;;;;17.13;55.90;95056.06;10354397;28;20095;-23
2022/04/24 09:26:36;;;;;;;10.47;3.77;;;;;;;17.37;56.00;95096.03;10358786;28;20462;-22
2022/04/24 09:31:36;;;;;;;10.17;3.10;;;;;;;17.36;55.55;95100.28;10356872;28;20026;-24
2022/04/24 09:36:36;;;;;;;15.47;3.63;;;;;;;17.28;56.07;95106.31;10366436;28;20037;-23
2022/04/24 09:41:38;;;;;;;13.17;3.90;;;;;;;17.31;56.31;95111.34;10342975;28;20061;-23
2022/04/24 09:46:39;;;;;;;15.93;3.47;;;;;;;17.35;55.93;95120.50;10304375;28;20030;-24
2022/04/24 09:51:44;;;;;;;19.08;3.72;;;;;;;17.37;55.94;95121.34;10357075;28;20035;-23
2022/04/24 09:56:49;;;;;;;15.70;4.80;;;;;;;17.45;57.44;95132.13;10356996;28;20667;-29
2022/04/24 10:01:49;;;;;;;17.83;4.18;;;;;;;17.47;57.69;95132.91;10351103;28;20053;-24
2022/04/24 10:06:50;;;;;;;13.57;4.70;;;;;;;17.47;56.94;95140.50;10353700;28;20125;-23
2022/04/24 10:11:52;;;;;;;8.07;2.20;;;;;;;17.42;55.90;95130.50;10372245;28;20026;-22
2022/04/24 10:16:58;;;;;;;6.22;2.78;;;;;;;17.40;55.17;95136.47;10365398;28;20579;-23
2022/04/24 10:22:23;;;;;;;3.55;2.05;;;;;;;17.40;55.27;95146.59;10361354;28;20048;-23
2022/04/24 10:27:35;;;;;;;6.88;3.20;;;;;;;17.41;55.41;95143.19;10360806;28;20049;-24
2022/04/24 10:32:36;;;;;;;5.80;2.45;;;;;;;17.32;55.29;95129.00;10363229;28;20116;-23
2022/04/24 10:37:37;;;;;;;9.50;3.38;;;;;;;17.42;55.35;95150.72;10360981;28;20607;-23
2022/04/24 10:42:38;;;;;;;4.33;2.10;;;;;;;17.39;55.28;95147.41;10369981;28;20038;-23
2022/04/24 10:47:49;;;;;;;4.30;2.42;;;;;;;17.40;55.50;95147.41;10352692;28;20057;-23
2022/04/24 10:52:55;;;;;;;6.55;2.88;;;;;;;17.42;55.43;95155.78;10362259;28;20532;-23
2022/04/24 10:58:02;;;;;;;12.55;3.25;;;;;;;17.47;55.99;95158.22;10361408;28;20042;-25
2022/04/24 11:03:14;;;;;;;7.22;2.80;;;;;;;17.52;57.93;95161.50;10361586;28;20034;-24
2022/04/24 11:08:18;;;;;;;13.88;3.72;;;;;;;17.55;56.18;95163.94;10364782;28;20038;-24
2022/04/24 11:13:19;;;;;;;29.92;4.03;;;;;;;17.50;56.29;95169.09;10359383;28;20117;-23
2022/04/24 11:18:27;;;;;;;9.32;3.10;;;;;;;17.39;55.77;95155.00;10367335;28;20455;-23
2022/04/24 11:23:36;;;;;;;8.35;2.70;;;;;;;17.44;55.81;95173.47;10352595;28;20042;-23
2022/04/24 11:28:41;;;;;;;4.07;2.25;;;;;;;17.41;56.08;95168.50;10368563;28;20045;-23
2022/04/24 11:34:01;;;;;;;11.98;2.55;;;;;;;17.44;56.72;95183.59;10361019;28;20590;-23
2022/04/24 11:39:09;;;;;;;9.35;2.50;;;;;;;17.54;56.64;95180.00;10366710;28;20049;-22
2022/04/24 11:54:52;;;;;;;7.78;2.30;;;;;;;17.73;56.55;95187.19;10360109;28;20060;-21
2022/04/24 11:59:54;;;;;;;8.15;2.88;;;;;;;17.82;56.56;95191.22;10365351;28;20085;-22
2022/04/24 12:04:58;;;;;;;13.48;3.20;;;;;;;17.86;56.27;95192.81;10367140;28;20061;-21
2022/04/24 12:10:07;;;;;;;11.85;2.80;;;;;;;17.90;56.27;95209.63;10385637;28;20030;-21
2022/04/24 12:15:14;;;;;;;5.95;3.13;;;;;;;17.96;56.06;95200.19;10366086;28;20041;-22
2022/04/24 12:20:14;;;;;;;8.85;3.00;;;;;;;18.04;55.80;95222.78;10365568;28;20038;-22
2022/04/24 12:25:18;;;;;;;6.18;2.45;;;;;;;18.11;55.59;95216.72;10354857;28;20041;-21
2022/04/24 12:30:19;;;;;;;5.68;2.75;;;;;;;18.08;55.37;95214.28;10364202;28;20026;-21
2022/04/24 12:35:30;;;;;;;6.70;2.53;;;;;;;18.07;55.50;95240.47;10367476;28;20025;-20
2022/04/24 12:40:30;;;;;;;6.95;2.40;;;;;;;18.03;55.48;95248.97;10366742;28;20065;-21
2022/04/24 12:45:32;;;;;;;8.07;3.03;;;;;;;17.95;55.82;95243.25;10364434;28;20121;-21
2022/04/24 12:50:34;;;;;;;4.47;2.08;;;;;;;17.92;55.72;95255.97;10355113;28;20061;-21
2022/04/24 12:55:34;;;;;;;11.05;2.13;;;;;;;17.88;56.02;95241.69;10350516;28;20062;-21
2022/04/24 13:00:35;;;;;;;7.07;2.00;;;;;;;17.90;55.55;95250.13;10362694;28;20472;-21
2022/04/24 13:05:39;;;;;;;7.82;2.63;;;;;;;17.96;56.67;95255.88;10358182;28;20488;-20
2022/04/24 13:10:39;;;;;;;10.05;2.47;;;;;;;17.95;59.04;95258.44;10364062;28;20048;-20
2022/04/24 13:15:39;;;;;;;6.43;2.47;;;;;;;17.97;56.58;95260.06;10362060;28;20040;-20
2022/04/24 13:20:43;;;;;;;6.07;1.93;;;;;;;17.98;55.94;95263.44;10357430;28;20030;-20
2022/04/24 13:25:44;;;;;;;8.68;1.88;;;;;;;17.94;55.96;95264.38;10365388;28;20030;-22
2022/04/24 13:30:46;;;;;;;5.38;1.95;;;;;;;17.91;56.22;95252.59;10367333;28;20558;-20
2022/04/24 13:35:47;;;;;;;7.38;2.35;;;;;;;17.89;56.24;95253.50;10328561;28;20405;-21
2022/04/24 13:40:54;;;;;;;3.92;1.80;;;;;;;17.88;55.78;95261.94;10329040;28;20045;-21
2022/04/24 13:45:55;;;;;;;9.57;2.42;;;;;;;17.87;56.07;95275.47;10328499;28;20038;-22
2022/04/24 13:50:56;;;;;;;4.65;1.70;;;;;;;17.89;56.09;95268.69;10328352;28;20031;-21
2022/04/24 13:55:57;;;;;;;7.75;2.15;;;;;;;17.90;56.48;95280.50;10352303;28;20560;-20
2022/04/24 14:00:59;;;;;;;3.22;1.70;;;;;;;17.89;56.67;95276.28;10367091;28;20042;-21
2022/04/24 14:06:00;;;;;;;6.53;2.20;;;;;;;17.89;56.42;95294.00;10367070;28;20091;-21
2022/04/24 14:11:03;;;;;;;12.65;3.25;;;;;;;17.90;58.09;95291.44;10369153;28;20034;-21
2022/04/24 14:16:06;;;;;;;12.50;2.35;;;;;;;17.96;58.14;95285.41;10358003;28;20493;-21
2022/04/24 14:21:06;;;;;;;4.53;2.15;;;;;;;17.92;57.10;95293.94;10360854;28;20077;-20
2022/04/24 14:26:07;;;;;;;7.17;2.23;;;;;;;17.86;56.77;95294.06;10355213;28;20116;-21
2022/04/24 14:31:07;;;;;;;5.83;2.00;;;;;;;17.86;56.28;95301.66;10366513;28;20611;-21
2022/04/24 14:36:07;;;;;;;4.67;1.63;;;;;;;17.83;55.92;95300.03;10354069;28;20042;-21
2022/04/24 14:41:08;;;;;;;8.63;3.13;;;;;;;17.83;56.42;95299.22;10367456;28;20096;-21
2022/04/24 14:56:46;;;;;;;4.78;2.00;;;;;;;17.75;57.40;95313.72;10326860;28;20145;-21
2022/04/24 15:01:46;;;;;;;3.77;1.80;;;;;;;17.76;56.78;95325.50;10353644;28;20369;-21
2022/04/24 15:06:47;;;;;;;15.67;2.70;;;;;;;17.79;59.71;95327.97;10363122;28;20296;-21
2022/04/24 15:11:47;;;;;;;16.80;2.37;;;;;;;17.83;62.34;95335.47;10398518;28;20649;-21
2022/04/24 15:16:47;;;;;;;8.32;1.98;;;;;;;17.86;62.12;95339.63;10357179;28;20041;-22
2022/04/24 15:21:48;;;;;;;5.17;2.10;;;;;;;17.82;60.98;95338.84;10365492;28;20059;-22
2022/04/24 15:26:49;;;;;;;7.40;2.05;;;;;;;17.82;60.76;95348.97;10365603;28;20065;-22
2022/04/24 15:31:50;;;;;;;8.73;2.17;;;;;;;17.81;57.42;95349.00;10365127;28;20484;-21
2022/04/24 15:36:51;;;;;;;8.57;2.03;;;;;;;17.80;59.16;95348.19;10357404;28;20045;-21
2022/04/24 15:41:55;;;;;;;7.38;2.65;;;;;;;17.79;59.10;95344.00;10326243;28;20037;-22
2022/04/24 15:46:55;;;;;;;4.30;1.60;;;;;;;17.79;59.25;95344.00;10356531;28;20101;-20
2022/04/24 15:51:56;;;;;;;10.43;2.10;;;;;;;17.76;57.93;95338.16;10367272;28;20100;-22
2022/04/24 15:56:56;;;;;;;8.23;2.30;;;;;;;17.81;57.28;95354.06;10373310;28;20038;-21
2022/04/24 16:01:56;;;;;;;6.00;2.03;;;;;;;17.44;59.57;95358.16;10371318;28;20038;-21
2022/04/24 16:06:57;;;;;;;4.13;1.60;;;;;;;17.28;59.44;95360.09;10363749;28;20050;-21
2022/04/24 16:11:58;;;;;;;17.40;3.80;;;;;;;17.52;59.51;95353.78;10379453;28;20091;-22
2022/04/24 16:16:59;;;;;;;9.25;2.40;;;;;;;17.66;61.06;95372.09;10372237;28;20038;-22
2022/04/24 16:22:00;;;;;;;6.33;2.20;;;;;;;17.72;58.41;95371.97;10344037;28;20069;-22
2022/04/24 16:27:00;;;;;;;6.57;2.30;;;;;;;17.74;57.27;95380.38;10339031;28;20439;-21
2022/04/24 16:32:01;;;;;;;9.13;3.00;;;;;;;17.74;58.93;95381.19;10370484;28;20038;-22
2022/04/24 16:37:03;;;;;;;7.20;2.55;;;;;;;17.73;59.13;95378.72;10361847;28;20092;-22
2022/04/24 16:42:04;;;;;;;8.90;3.00;;;;;;;17.73;59.28;95389.66;10330875;28;20157;-21
2022/04/24 16:47:05;;;;;;;11.75;2.80;;;;;;;17.75;59.48;95387.13;10330990;28;20057;-22
2022/04/24 17:02:43;;;;;;;5.68;3.13;;;;;;;17.64;57.05;95399.09;10344910;28;20046;-19
2022/04/24 17:07:43;;;;;;;11.07;4.30;;;;;;;17.70;60.29;95404.06;10346344;28;20100;-21
2022/04/24 17:12:44;;;;;;;13.82;5.00;;;;;;;17.72;61.29;95402.34;10409751;28;20112;-25
2022/04/24 17:17:44;;;;;;;15.30;5.57;;;;;;;17.73;60.65;95396.44;10377802;28;20057;-22
2022/04/24 17:22:45;;;;;;;15.23;4.80;;;;;;;17.74;59.76;95410.75;10353622;28;20039;-21
2022/04/24 17:27:45;;;;;;;12.65;5.00;;;;;;;17.72;60.13;95403.19;10342816;28;20037;-21
2022/04/24 17:32:46;;;;;;;11.90;4.73;;;;;;;17.73;59.01;95409.09;10338338;28;20481;-22
2022/04/24 17:37:48;;;;;;;11.95;5.00;;;;;;;17.73;58.69;95416.69;10328608;28;20069;-22
2022/04/24 17:42:48;;;;;;;10.20;5.68;;;;;;;17.73;60.76;95417.50;10328684;28;20488;-21
2022/04/24 17:47:49;;;;;;;16.33;5.50;;;;;;;17.73;60.47;95424.28;10329188;28;20040;-22
2022/04/24 17:52:50;;;;;;;12.32;5.22;;;;;;;17.72;59.35;95427.63;10343659;28;20065;-21
2022/04/24 17:57:50;;;;;;;12.67;5.47;;;;;;;17.71;59.36;95436.09;10337234;28;20112;-22
2022/04/24 18:02:50;;;;;;;14.02;5.13;;;;;;;17.70;59.99;95439.50;10356994;28;20049;-22
2022/04/24 18:07:51;;;;;;;13.33;5.00;;;;;;;17.70;60.71;95444.56;10362631;28;20088;-22
2022/04/24 18:12:51;;;;;;;12.47;6.17;;;;;;;17.73;61.31;95449.59;10364594;28;20504;-22
2022/04/24 18:17:52;;;;;;;5.90;3.17;;;;;;;17.71;60.54;95446.22;10347611;28;20052;-23
2022/04/24 18:22:52;;;;;;;5.20;2.73;;;;;;;17.70;60.43;95454.69;10350400;28;20300;-22
2022/04/24 18:27:53;;;;;;;7.90;3.83;;;;;;;17.66;60.47;95461.50;10358166;28;20121;-23
2022/04/24 18:32:55;;;;;;;12.38;4.53;;;;;;;17.65;60.35;95469.13;10353756;28;20026;-21
2022/04/24 18:37:55;;;;;;;6.60;3.60;;;;;;;17.65;59.55;95476.72;10362221;28;20062;-22
2022/04/24 18:42:56;;;;;;;13.80;5.77;;;;;;;17.65;59.87;95482.59;10362869;28;20215;-22
2022/04/24 18:47:57;;;;;;;11.75;4.63;;;;;;;17.64;59.66;95485.16;10350654;28;20107;-21
2022/04/24 18:52:57;;;;;;;9.10;2.83;;;;;;;17.62;59.24;95497.00;10357289;28;20044;-22
2022/04/24 18:57:57;;;;;;;6.43;3.57;;;;;;;17.63;58.84;95499.50;10365249;28;20041;-22
2022/04/24 19:02:58;;;;;;;7.00;3.30;;;;;;;17.64;58.23;95518.03;10350060;28;20273;-22
2022/04/24 19:07:58;;;;;;;10.93;3.87;;;;;;;17.63;60.14;95513.84;10355055;28;20512;-21
2022/04/24 19:13:00;;;;;;;7.87;4.13;;;;;;;17.67;60.85;95512.97;10403579;28;20030;-21
2022/04/24 19:18:02;;;;;;;11.27;3.80;;;;;;;17.62;60.87;95519.78;10358324;28;20046;-21
2022/04/24 19:23:03;;;;;;;8.77;3.08;;;;;;;17.65;60.45;95532.41;10344417;28;20493;-22
2022/04/24 19:28:04;;;;;;;7.45;3.33;;;;;;;17.66;60.09;95544.19;10370984;28;20042;-22
2022/04/24 19:33:04;;;;;;;5.90;3.05;;;;;;;17.62;59.82;95542.56;10366872;28;20420;-22
2022/04/24 19:38:05;;;;;;;8.37;3.03;;;;;;;17.62;59.83;95542.56;10352225;28;20042;-22
2022/04/24 19:43:07;;;;;;;6.13;2.88;;;;;;;17.56;59.73;95537.59;10345000;28;20297;-21
2022/04/24 19:53:29;;;;;;;6.28;2.67;;;;;;;17.62;58.27;95557.72;10363736;28;20040;-22
2022/04/24 19:58:29;;;;;;;7.32;2.90;;;;;;;17.63;58.81;95564.47;10369211;28;20034;-23
2022/04/24 20:03:31;;;;;;;4.22;2.22;;;;;;;17.64;57.98;95566.13;10373920;28;20034;-22
2022/04/24 20:08:32;;;;;;;7.70;3.00;;;;;;;17.65;58.51;95572.91;10354956;28;20069;-22
2022/04/24 20:13:33;;;;;;;5.50;3.05;;;;;;;17.68;60.21;95583.78;10365937;28;20136;-22
2022/04/24 20:18:35;;;;;;;4.97;2.30;;;;;;;17.69;60.56;95590.53;10356234;28;20392;-22
2022/04/24 20:23:35;;;;;;;3.90;2.15;;;;;;;17.69;58.22;95589.69;10355078;28;20045;-21
2022/04/24 20:28:35;;;;;;;5.60;1.60;;;;;;;17.54;58.28;95589.91;10368368;28;20046;-22
2022/04/24 20:33:36;;;;;;;5.23;2.40;;;;;;;17.59;58.23;95594.03;10356045;28;20289;-22
2022/04/24 20:38:41;;;;;;;2.90;1.90;;;;;;;17.55;57.82;95586.50;10356399;28;20393;-22
2022/04/24 20:43:41;;;;;;;6.78;2.28;;;;;;;17.62;57.22;95593.16;10356204;28;20050;-21
2022/04/24 20:48:42;;;;;;;8.70;2.67;;;;;;;17.65;57.89;95593.97;10359870;28;20121;-23
2022/04/24 20:53:42;;;;;;;6.73;2.53;;;;;;;17.67;57.75;95599.00;10347073;28;20380;-23
2022/04/24 20:58:43;;;;;;;11.75;3.20;;;;;;;17.67;57.63;95596.47;10346282;28;20080;-23
2022/04/24 21:03:43;;;;;;;6.00;2.13;;;;;;;17.64;58.04;95602.41;10369570;28;20667;-23
2022/04/24 21:08:44;;;;;;;6.50;2.55;;;;;;;17.67;59.56;95593.94;10367316;28;20300;-23
2022/04/24 21:13:44;;;;;;;6.93;2.63;;;;;;;17.62;60.34;95594.00;10369091;28;20033;-23
2022/04/24 21:18:46;;;;;;;5.87;2.40;;;;;;;17.70;60.75;95607.41;10370128;28;20034;-23
2022/04/24 21:23:46;;;;;;;6.28;2.40;;;;;;;17.67;60.51;95601.53;10345355;28;20301;-23
2022/04/24 21:28:47;;;;;;;6.43;2.30;;;;;;;17.58;59.42;95586.50;10342063;28;20045;-23
2022/04/24 21:33:47;;;;;;;5.00;2.22;;;;;;;17.65;60.13;95608.31;10326644;28;20515;-23
2022/04/24 21:38:47;;;;;;;6.50;2.47;;;;;;;17.65;59.02;95598.19;10352469;28;20163;-23
2022/04/24 21:43:48;;;;;;;10.90;2.80;;;;;;;17.65;59.82;95608.31;10362667;28;20037;-23
2022/04/24 21:48:48;;;;;;;6.97;1.90;;;;;;;17.63;58.75;95604.97;10324674;28;20453;-23
2022/04/24 21:53:48;;;;;;;4.43;2.07;;;;;;;17.63;59.98;95610.88;10324439;28;20289;-23
2022/04/24 21:58:49;;;;;;;4.10;1.77;;;;;;;17.62;57.58;95609.19;10324708;28;20030;-23
2022/04/24 22:09:08;;;;;;;4.43;1.85;;;;;;;17.62;57.99;95623.53;10343871;28;20523;-23
2022/04/24 22:14:09;;;;;;;6.10;2.43;;;;;;;17.61;61.18;95625.25;10364684;28;20033;-23
2022/04/24 22:19:09;;;;;;;6.37;2.10;;;;;;;17.60;62.87;95630.31;10332514;28;20296;-23
2022/04/24 22:29:45;;;;;;;6.10;1.73;;;;;;;17.62;60.27;95628.59;10319976;28;20480;-23
2022/04/24 22:34:46;;;;;;;6.45;1.75;;;;;;;17.63;58.53;95635.31;10323456;28;20042;-23
2022/04/24 22:39:46;;;;;;;4.27;1.90;;;;;;;17.61;58.52;95637.91;10354837;28;20030;-23
2022/04/24 22:44:47;;;;;;;5.50;2.03;;;;;;;17.61;59.14;95647.19;10367898;28;20277;-23
2022/04/24 22:49:48;;;;;;;3.95;1.90;;;;;;;17.59;58.94;95648.91;10328031;28;20117;-24
2022/04/24 22:54:48;;;;;;;3.20;1.57;;;;;;;17.61;57.82;95647.19;10360518;28;20567;-23
2022/04/24 22:59:48;;;;;;;6.50;1.50;;;;;;;17.59;60.29;95644.66;10358332;28;20297;-24
2022/04/24 23:04:49;;;;;;;6.67;2.23;;;;;;;17.61;58.64;95662.34;10334134;28;20692;-23
2022/04/24 23:09:49;;;;;;;4.03;1.83;;;;;;;17.52;59.90;95653.22;10362823;28;20022;-23
2022/04/24 23:14:49;;;;;;;6.17;2.03;;;;;;;17.61;61.42;95659.81;10375349;28;20084;-23
2022/04/24 23:19:50;;;;;;;7.27;1.90;;;;;;;17.64;61.79;95657.25;10339355;28;20789;-23
2022/04/24 23:24:50;;;;;;;9.00;1.67;;;;;;;17.64;61.27;95653.03;10334664;28;20045;-23
2022/04/24 23:29:52;;;;;;;3.37;1.30;;;;;;;17.61;59.03;95647.19;10334404;28;20125;-23
2022/04/24 23:34:53;;;;;;;4.63;1.48;;;;;;;17.60;58.59;95637.91;10334050;28;20224;-23
2022/04/24 23:39:53;;;;;;;3.20;1.37;;;;;;;17.60;58.80;95645.50;10334075;28;20414;-23
2022/04/24 23:44:53;;;;;;;4.10;1.73;;;;;;;17.59;58.68;95654.78;10333608;28;20030;-23
2022/04/24 23:49:54;;;;;;;4.73;1.93;;;;;;;17.51;59.99;95648.16;10334108;28;20038;-23
2022/04/24 23:54:54;;;;;;;6.27;2.00;;;;;;;17.58;58.52;95652.28;10365645;28;20040;-23
2022/04/24 23:59:54;;;;;;;4.00;2.13;;;;;;;17.59;59.73;95649.72;10371852;28;20034;-23
